Time;durP1;ratioP1;P1;durP2;ratioP2;P2;SDS_P1;SDS_P2;PMS_P1;PMS_P2;Temp;Humidity;BMP_temperature;BMP_pressure;BME280_temperature;BME280_humidity;BME280_pressure;Samples;Min_cycle;Max_cycle;Signal;HPM_P1;HPM_P2
2021/12/03 00:01:30;;;;;;;16.77;8.82;;;;;;;0.33;81.30;97446.69;4973401;28;20050;-63
2021/12/03 00:03:57;;;;;;;16.92;8.32;;;;;;;0.30;81.32;97445.41;4973172;28;20047;-64
2021/12/03 00:06:24;;;;;;;14.95;7.47;;;;;;;0.32;80.96;97451.34;4973695;28;20569;-57
2021/12/03 00:08:51;;;;;;;17.52;8.70;;;;;;;0.31;81.79;97460.69;4973532;28;20065;-60
2021/12/03 00:11:19;;;;;;;15.70;7.70;;;;;;;0.30;81.04;97463.72;4973592;28;20078;-56
2021/12/03 00:13:46;;;;;;;14.77;7.57;;;;;;;0.35;81.35;97467.13;4972507;28;20058;-62
2021/12/03 00:16:13;;;;;;;13.05;7.18;;;;;;;0.35;81.23;97467.13;4973151;28;20062;-62
2021/12/03 00:18:40;;;;;;;15.82;7.30;;;;;;;0.39;81.78;97468.13;4973032;28;20097;-62
2021/12/03 00:21:10;;;;;;;14.95;6.65;;;;;;;0.44;81.05;97453.50;4973478;28;20085;-62
2021/12/03 00:23:38;;;;;;;13.65;7.30;;;;;;;0.46;81.39;97462.97;4973178;28;20506;-62
2021/12/03 00:26:07;;;;;;;12.50;6.88;;;;;;;0.48;81.45;97459.94;4969587;28;20573;-64
2021/12/03 00:28:35;;;;;;;13.48;6.68;;;;;;;0.49;81.42;97462.34;4972734;28;20058;-64
2021/12/03 00:31:04;;;;;;;15.10;5.97;;;;;;;0.48;81.61;97463.47;4973152;28;20502;-64
2021/12/03 00:33:32;;;;;;;15.82;6.97;;;;;;;0.46;81.15;97445.75;4972677;28;20146;-63
2021/12/03 00:36:04;;;;;;;14.20;6.88;;;;;;;0.48;81.48;97449.81;4973261;28;20485;-64
2021/12/03 00:38:39;;;;;;;11.75;5.93;;;;;;;0.52;81.14;97453.50;4972987;28;20058;-64
2021/12/03 00:41:10;;;;;;;16.17;6.93;;;;;;;0.55;81.21;97457.50;4988357;28;20417;-63
2021/12/03 00:43:42;;;;;;;14.88;6.78;;;;;;;0.57;80.77;97433.41;4973094;28;20051;-64
2021/12/03 00:46:15;;;;;;;14.25;7.20;;;;;;;0.59;81.02;97445.63;4970158;28;20046;-63
2021/12/03 00:48:45;;;;;;;14.00;6.43;;;;;;;0.58;81.41;97438.53;4973069;28;20057;-64
2021/12/03 00:51:16;;;;;;;14.27;6.95;;;;;;;0.59;81.11;97436.63;4969410;28;20054;-63
2021/12/03 00:53:43;;;;;;;11.20;6.20;;;;;;;0.62;81.49;97442.25;4988025;28;20078;-63
2021/12/03 00:56:11;;;;;;;11.43;6.45;;;;;;;0.61;81.29;97437.91;4973214;28;20053;-63
2021/12/03 00:58:38;;;;;;;13.10;6.30;;;;;;;0.64;81.26;97452.88;4972844;28;20137;-64
2021/12/03 01:01:06;;;;;;;11.95;6.22;;;;;;;0.69;81.37;97458.19;4972121;28;20523;-63
2021/12/03 01:03:35;;;;;;;13.77;6.30;;;;;;;0.68;80.74;97465.59;4973228;28;20069;-63
2021/12/03 01:06:03;;;;;;;13.00;6.50;;;;;;;0.67;81.18;97458.50;4972619;28;20054;-62
2021/12/03 01:08:31;;;;;;;11.40;6.07;;;;;;;0.68;81.18;97451.13;4973099;28;20054;-63
2021/12/03 01:10:58;;;;;;;10.38;6.20;;;;;;;0.72;81.24;97454.81;4972509;28;20051;-63
2021/12/03 01:13:25;;;;;;;11.27;5.75;;;;;;;0.74;81.25;97453.38;4987513;28;20053;-63
2021/12/03 01:15:52;;;;;;;13.60;5.88;;;;;;;0.79;80.98;97455.94;4972701;28;20054;-62
2021/12/03 01:18:19;;;;;;;13.10;6.55;;;;;;;0.79;80.68;97471.56;4972394;28;20051;-63
2021/12/03 01:20:47;;;;;;;11.38;5.85;;;;;;;0.79;81.06;97466.91;4972694;28;20410;-63
2021/12/03 01:23:14;;;;;;;12.68;5.88;;;;;;;0.83;80.77;97464.34;4988060;28;20061;-63
2021/12/03 01:25:41;;;;;;;15.18;7.35;;;;;;;0.86;81.04;97469.16;4976042;28;20737;-64
2021/12/03 01:28:09;;;;;;;19.30;7.22;;;;;;;0.90;80.61;97478.34;4991240;28;20050;-63
2021/12/03 01:30:36;;;;;;;13.15;6.68;;;;;;;0.89;80.92;97477.53;4976441;28;20054;-63
2021/12/03 01:33:07;;;;;;;14.98;6.30;;;;;;;0.86;81.06;97475.44;4976040;28;20515;-63
2021/12/03 01:35:36;;;;;;;11.43;6.22;;;;;;;0.87;81.00;97470.78;4975879;28;20050;-64
2021/12/03 01:38:06;;;;;;;9.38;5.32;;;;;;;0.87;80.70;97474.31;4991683;28;20086;-64
2021/12/03 01:40:34;;;;;;;12.65;6.95;;;;;;;0.75;80.80;97460.47;4976156;28;20051;-63
2021/12/03 01:43:04;;;;;;;12.35;6.50;;;;;;;0.72;81.26;97477.53;4973272;28;20047;-64
2021/12/03 01:45:34;;;;;;;12.38;6.55;;;;;;;0.76;80.83;97477.66;4975282;28;20055;-63
2021/12/03 01:48:02;;;;;;;12.25;6.85;;;;;;;0.73;80.77;97479.13;4971828;28;20113;-64
2021/12/03 01:50:42;;;;;;;14.65;6.43;;;;;;;0.69;80.72;97486.38;4975663;28;20054;-64
2021/12/03 01:53:11;;;;;;;15.10;6.18;;;;;;;0.62;80.95;97486.00;4973445;28;20049;-63
2021/12/03 01:55:40;;;;;;;13.75;7.00;;;;;;;0.61;81.16;97498.09;4976005;28;20471;-63
2021/12/03 01:58:07;;;;;;;14.63;7.10;;;;;;;0.65;81.14;97504.53;4975889;28;20057;-63
2021/12/03 02:00:39;;;;;;;11.25;5.85;;;;;;;0.72;81.49;97502.16;4975703;28;20062;-63
2021/12/03 02:03:08;;;;;;;16.60;7.28;;;;;;;0.78;81.20;97503.59;4972468;28;20385;-63
2021/12/03 02:05:35;;;;;;;13.10;6.40;;;;;;;0.83;80.56;97502.66;4975577;28;20062;-63
2021/12/03 02:08:03;;;;;;;14.65;6.63;;;;;;;0.84;80.96;97507.81;4975727;28;20069;-63
2021/12/03 02:10:30;;;;;;;12.98;6.35;;;;;;;0.90;80.80;97517.47;4976080;28;20050;-58
2021/12/03 02:12:57;;;;;;;15.40;6.20;;;;;;;0.96;80.68;97507.97;4975095;28;20133;-58
2021/12/03 02:15:24;;;;;;;13.60;7.07;;;;;;;1.03;80.75;97522.00;4975678;28;20054;-59
2021/12/03 02:17:51;;;;;;;14.10;6.63;;;;;;;1.01;80.55;97513.28;4974786;28;20047;-59
2021/12/03 02:20:18;;;;;;;17.08;6.15;;;;;;;1.02;80.88;97512.19;4975788;28;20061;-59
2021/12/03 02:22:46;;;;;;;15.43;7.47;;;;;;;1.00;80.84;97528.09;4975232;28;20050;-59
2021/12/03 02:25:20;;;;;;;14.05;6.95;;;;;;;1.01;80.39;97512.50;4975834;28;20055;-59
2021/12/03 02:27:49;;;;;;;12.98;6.53;;;;;;;0.96;80.73;97524.41;4975118;28;20105;-58
2021/12/03 02:30:17;;;;;;;11.50;6.60;;;;;;;0.89;80.52;97521.31;4975888;28;20170;-58
2021/12/03 02:32:46;;;;;;;14.40;6.43;;;;;;;0.86;80.61;97526.63;4973313;28;20078;-58
2021/12/03 02:35:12;;;;;;;14.20;7.00;;;;;;;0.89;80.94;97526.00;4974916;28;20061;-59
2021/12/03 02:37:40;;;;;;;11.75;6.25;;;;;;;0.93;80.98;97522.31;4974809;28;20050;-56
2021/12/03 02:40:08;;;;;;;12.82;6.20;;;;;;;0.98;80.54;97513.91;4990579;28;20412;-58
2021/12/03 02:42:36;;;;;;;19.30;7.30;;;;;;;0.98;80.05;97516.66;4989426;28;20078;-58
2021/12/03 02:45:04;;;;;;;13.82;6.75;;;;;;;1.05;80.18;97519.75;4975307;28;20055;-59
2021/12/03 02:47:31;;;;;;;13.18;6.40;;;;;;;1.07;80.05;97516.69;4974740;28;20082;-57
2021/12/03 02:49:58;;;;;;;17.48;7.38;;;;;;;1.14;79.95;97517.00;4975223;28;20061;-59
2021/12/03 02:52:25;;;;;;;13.85;6.82;;;;;;;1.13;79.72;97521.66;4974997;28;20054;-58
2021/12/03 02:54:52;;;;;;;12.77;7.38;;;;;;;1.16;79.81;97528.44;4974596;28;20043;-58
2021/12/03 02:57:20;;;;;;;13.52;7.30;;;;;;;1.19;79.64;97528.59;4975182;28;20567;-61
2021/12/03 02:59:47;;;;;;;15.23;7.55;;;;;;;1.24;79.33;97533.09;4975154;28;20133;-57
2021/12/03 03:02:14;;;;;;;13.80;7.18;;;;;;;1.25;79.98;97541.00;4975006;28;20086;-60
2021/12/03 03:04:51;;;;;;;11.13;6.40;;;;;;;1.28;79.79;97536.84;4988563;28;20125;-58
2021/12/03 03:07:18;;;;;;;16.40;6.88;;;;;;;1.33;79.27;97540.22;4975089;28;20423;-57
2021/12/03 03:09:46;;;;;;;14.75;7.05;;;;;;;1.34;79.11;97544.59;4974625;28;20137;-53
2021/12/03 03:12:14;;;;;;;13.10;6.82;;;;;;;1.36;79.21;97536.03;4974607;28;20051;-57
2021/12/03 03:14:53;;;;;;;13.23;6.88;;;;;;;1.37;79.17;97548.59;4974596;28;20053;-58
2021/12/03 03:17:22;;;;;;;16.05;7.68;;;;;;;1.36;79.24;97553.25;4974744;28;20055;-57
2021/12/03 03:19:49;;;;;;;12.03;6.60;;;;;;;1.35;79.28;97557.13;4974475;28;20062;-56
2021/12/03 03:22:18;;;;;;;21.75;7.63;;;;;;;1.35;78.91;97565.34;4974560;28;20059;-58
2021/12/03 03:24:45;;;;;;;14.98;7.82;;;;;;;1.38;78.93;97563.91;4974423;28;20137;-59
2021/12/03 03:27:13;;;;;;;14.23;6.85;;;;;;;1.41;78.60;97561.31;4974618;28;20470;-58
2021/12/03 03:29:43;;;;;;;17.42;7.75;;;;;;;1.44;78.79;97573.56;4973859;28;20057;-58
2021/12/03 03:32:11;;;;;;;12.87;7.63;;;;;;;1.47;78.88;97559.22;4972819;28;20550;-59
2021/12/03 03:34:38;;;;;;;11.50;6.63;;;;;;;1.48;78.55;97569.84;4974070;28;20073;-55
2021/12/03 03:37:05;;;;;;;13.43;6.25;;;;;;;1.45;78.57;97556.81;4974126;28;20069;-58
2021/12/03 03:39:32;;;;;;;12.88;7.30;;;;;;;1.33;78.97;97553.91;4974085;28;20054;-57
2021/12/03 03:42:00;;;;;;;16.63;8.50;;;;;;;1.20;78.83;97565.81;4974312;28;20051;-58
2021/12/03 03:44:27;;;;;;;15.70;7.40;;;;;;;1.17;79.08;97557.44;4988904;28;20077;-58
2021/12/03 03:46:55;;;;;;;18.42;7.57;;;;;;;1.10;79.04;97546.94;4973526;28;20701;-57
2021/12/03 03:49:24;;;;;;;18.42;8.27;;;;;;;1.08;79.34;97562.91;4973668;28;20051;-57
2021/12/03 03:51:51;;;;;;;15.90;6.70;;;;;;;1.03;79.39;97564.97;4973963;28;20070;-54
2021/12/03 03:54:19;;;;;;;15.27;8.27;;;;;;;0.98;79.36;97567.88;4973334;28;20069;-58
2021/12/03 03:56:46;;;;;;;13.80;7.63;;;;;;;1.03;79.18;97570.44;4969972;28;20054;-64
2021/12/03 03:59:17;;;;;;;20.88;8.55;;;;;;;1.05;78.79;97584.63;4973902;28;20066;-63
2021/12/03 04:01:45;;;;;;;;;;;;;;;1.11;78.92;97581.44;4974178;28;20101;-62
2021/12/03 04:04:13;;;;;;;13.90;6.78;;;;;;;1.20;79.16;97582.25;4973904;28;20404;-63
2021/12/03 04:06:40;;;;;;;15.98;8.65;;;;;;;1.27;78.61;97577.09;4971929;28;20054;-62
2021/12/03 04:09:08;;;;;;;15.55;7.57;;;;;;;1.28;78.27;97584.22;4974116;28;20051;-62
2021/12/03 04:11:35;;;;;;;16.52;7.18;;;;;;;1.34;78.60;97588.41;4972791;28;20051;-63
2021/12/03 04:14:02;;;;;;;17.98;7.63;;;;;;;1.32;78.53;97584.34;4973706;28;20133;-63
2021/12/03 04:16:30;;;;;;;13.93;7.13;;;;;;;1.31;78.99;97586.31;4972964;28;20078;-62
2021/12/03 04:18:58;;;;;;;13.05;7.13;;;;;;;1.36;78.70;97597.09;4973325;28;20046;-61
2021/12/03 04:21:26;;;;;;;18.40;6.97;;;;;;;1.42;78.42;97587.59;4972777;28;20047;-62
2021/12/03 04:23:53;;;;;;;18.08;8.27;;;;;;;1.49;77.71;97598.88;4973766;28;20126;-61
2021/12/03 04:26:20;;;;;;;16.80;7.20;;;;;;;1.56;77.73;97609.34;4972649;28;20150;-62
2021/12/03 04:28:47;;;;;;;16.77;8.07;;;;;;;1.59;77.50;97606.78;4973179;28;20054;-62
2021/12/03 04:31:14;;;;;;;17.30;8.52;;;;;;;1.58;77.66;97615.31;4987422;28;20074;-61
2021/12/03 04:33:41;;;;;;;14.35;7.75;;;;;;;1.57;77.35;97614.50;4973649;28;20066;-63
2021/12/03 04:36:08;;;;;;;16.40;8.35;;;;;;;1.61;77.79;97607.28;4972941;28;20051;-63
2021/12/03 04:38:35;;;;;;;16.08;7.78;;;;;;;1.62;77.42;97608.88;4972959;28;20403;-62
2021/12/03 04:41:03;;;;;;;17.65;8.43;;;;;;;1.58;77.54;97605.19;4972814;28;20395;-64
2021/12/03 04:43:30;;;;;;;16.30;8.02;;;;;;;1.46;77.64;97609.66;4973055;28;20061;-64
2021/12/03 04:45:57;;;;;;;13.85;7.38;;;;;;;1.37;77.54;97614.34;4973136;28;20072;-63
2021/12/03 04:48:25;;;;;;;15.13;7.97;;;;;;;1.29;78.23;97618.66;4972602;28;20137;-63
2021/12/03 04:50:52;;;;;;;16.90;8.38;;;;;;;1.27;77.92;97623.66;4973560;28;20069;-62
2021/12/03 04:53:19;;;;;;;13.57;9.07;;;;;;;1.35;78.15;97622.88;4972611;28;20517;-63
2021/12/03 04:55:48;;;;;;;13.77;7.28;;;;;;;1.44;78.06;97637.38;4972839;28;20047;-63
2021/12/03 04:58:16;;;;;;;18.73;8.07;;;;;;;1.40;77.81;97633.69;4986992;28;20140;-62
2021/12/03 05:00:45;;;;;;;17.95;8.35;;;;;;;1.44;77.68;97637.38;4973541;28;20064;-63
2021/12/03 05:03:13;;;;;;;14.95;8.20;;;;;;;1.46;77.27;97645.28;4972877;28;20117;-64
2021/12/03 05:05:47;;;;;;;16.75;8.10;;;;;;;1.51;77.11;97639.66;4972777;28;20506;-63
2021/12/03 05:08:14;;;;;;;21.70;7.32;;;;;;;1.55;77.28;97638.69;4972275;28;20055;-62
2021/12/03 05:10:43;;;;;;;16.00;7.85;;;;;;;1.58;77.62;97649.03;4972668;28;20050;-63
2021/12/03 05:13:13;;;;;;;19.35;8.75;;;;;;;1.56;77.47;97654.00;4972045;28;20113;-62
2021/12/03 05:15:41;;;;;;;15.57;7.45;;;;;;;1.54;77.04;97664.47;4972635;28;20047;-63
2021/12/03 05:18:11;;;;;;;17.85;8.00;;;;;;;1.55;77.10;97663.34;4972076;28;20963;-63
2021/12/03 05:20:38;;;;;;;15.70;8.25;;;;;;;1.58;77.09;97659.16;4973136;28;20059;-64
2021/12/03 05:23:05;;;;;;;14.98;7.65;;;;;;;1.61;77.28;97659.34;4972445;28;20429;-63
2021/12/03 05:25:33;;;;;;;13.65;6.18;;;;;;;1.63;77.11;97662.53;4972018;28;20055;-63
2021/12/03 05:28:02;;;;;;;14.25;7.78;;;;;;;1.66;76.59;97667.38;4972198;28;20049;-64
2021/12/03 05:30:29;;;;;;;16.13;8.48;;;;;;;1.67;76.78;97671.75;4969163;28;20058;-63
2021/12/03 05:32:56;;;;;;;16.13;6.60;;;;;;;1.66;76.75;97664.63;4972063;28;20069;-63
2021/12/03 05:35:23;;;;;;;16.25;8.27;;;;;;;1.61;76.83;97669.47;4972688;28;20434;-63
2021/12/03 05:37:51;;;;;;;15.23;7.40;;;;;;;1.52;77.18;97677.69;4972705;28;20053;-62
2021/12/03 05:40:19;;;;;;;13.77;7.05;;;;;;;1.44;77.05;97683.13;4972227;28;20137;-63
2021/12/03 05:42:46;;;;;;;12.82;6.93;;;;;;;1.39;77.07;97680.56;4971859;28;20051;-64
2021/12/03 05:45:18;;;;;;;20.08;7.18;;;;;;;1.42;77.21;97691.69;4969145;28;20043;-64
2021/12/03 05:47:45;;;;;;;12.27;6.65;;;;;;;1.41;77.27;97687.34;4971256;28;20148;-63
2021/12/03 05:50:14;;;;;;;14.88;7.85;;;;;;;1.38;77.45;97687.16;4973151;28;20059;-64
2021/12/03 05:52:41;;;;;;;14.93;7.07;;;;;;;1.37;77.25;97700.06;4966828;28;20482;-64
2021/12/03 05:55:09;;;;;;;15.18;7.97;;;;;;;1.41;76.92;97698.28;4971684;28;20054;-63
2021/12/03 05:57:37;;;;;;;13.70;6.95;;;;;;;1.38;77.42;97693.44;4972051;28;20142;-63
2021/12/03 06:00:09;;;;;;;14.75;7.82;;;;;;;1.37;76.94;97702.81;4971990;28;20053;-64
2021/12/03 06:02:36;;;;;;;15.77;8.57;;;;;;;1.34;77.28;97708.91;4972127;28;20047;-63
2021/12/03 06:05:05;;;;;;;15.25;8.07;;;;;;;1.35;77.37;97724.22;4971142;28;20514;-63
2021/12/03 06:07:32;;;;;;;16.65;8.05;;;;;;;1.32;77.05;97721.28;4972006;28;20121;-63
2021/12/03 06:09:59;;;;;;;19.10;8.30;;;;;;;1.30;77.35;97729.81;4971611;28;20059;-64
2021/12/03 06:12:26;;;;;;;14.38;7.22;;;;;;;1.28;77.30;97725.81;4975165;28;20054;-64
2021/12/03 06:14:53;;;;;;;16.08;8.30;;;;;;;1.32;77.24;97721.28;4975203;28;20474;-64
2021/12/03 06:17:20;;;;;;;18.05;8.50;;;;;;;1.32;77.04;97727.59;4974076;28;20067;-64
2021/12/03 06:19:46;;;;;;;15.23;8.27;;;;;;;1.34;77.22;97716.31;4974790;28;20454;-66
2021/12/03 06:22:13;;;;;;;15.45;7.95;;;;;;;1.41;77.04;97733.09;4974612;28;20051;-64
2021/12/03 06:24:41;;;;;;;22.75;7.90;;;;;;;1.46;76.93;97727.47;4975283;28;20054;-64
2021/12/03 06:27:08;;;;;;;14.73;7.97;;;;;;;1.47;76.76;97727.16;4974481;28;20129;-64
2021/12/03 06:29:35;;;;;;;20.63;8.88;;;;;;;1.55;76.56;97731.84;4975413;28;20046;-64
2021/12/03 06:32:10;;;;;;;15.63;7.38;;;;;;;1.64;76.74;97729.94;4974331;28;20149;-64
2021/12/03 06:34:38;;;;;;;19.25;8.85;;;;;;;1.72;76.58;97737.34;4975277;28;20051;-64
2021/12/03 06:37:05;;;;;;;14.48;7.75;;;;;;;1.77;76.28;97739.94;4974539;28;20092;-64
2021/12/03 06:39:32;;;;;;;16.10;7.38;;;;;;;1.87;76.36;97755.31;4975523;28;20077;-64
2021/12/03 06:41:59;;;;;;;12.18;7.88;;;;;;;1.92;75.82;97762.56;4974595;28;20422;-65
2021/12/03 06:44:26;;;;;;;17.35;7.47;;;;;;;1.90;75.71;97752.69;4975131;28;20388;-65
2021/12/03 06:46:53;;;;;;;15.15;6.85;;;;;;;1.96;76.02;97769.81;4974029;28;20050;-64
2021/12/03 06:49:22;;;;;;;20.73;7.80;;;;;;;1.96;75.59;97764.34;4974812;28;20217;-64
2021/12/03 06:51:51;;;;;;;20.85;10.25;;;;;;;2.00;75.44;97778.19;4973977;28;20051;-65
2021/12/03 06:54:26;;;;;;;13.98;7.50;;;;;;;2.03;75.29;97778.38;4983047;28;20054;-64
2021/12/03 06:56:53;;;;;;;15.93;8.45;;;;;;;2.06;74.91;97785.16;4974036;28;20482;-64
2021/12/03 06:59:22;;;;;;;14.43;7.95;;;;;;;2.10;74.78;97781.44;4975056;28;20047;-64
2021/12/03 07:01:50;;;;;;;19.70;8.20;;;;;;;2.16;74.86;97780.16;4974155;28;20059;-64
2021/12/03 07:04:18;;;;;;;19.67;9.07;;;;;;;2.20;74.69;97780.34;4974741;28;20126;-63
2021/12/03 07:06:45;;;;;;;16.60;7.80;;;;;;;2.25;74.77;97771.94;4972467;28;20061;-63
2021/12/03 07:09:13;;;;;;;15.05;8.45;;;;;;;2.30;74.40;97771.78;4974647;28;20081;-64
2021/12/03 07:11:41;;;;;;;15.50;7.80;;;;;;;2.30;74.52;97774.53;4974252;28;20129;-65
2021/12/03 07:14:08;;;;;;;14.80;8.02;;;;;;;2.27;74.51;97784.22;4971082;28;20051;-64
2021/12/03 07:16:36;;;;;;;14.10;7.78;;;;;;;2.26;74.21;97784.53;4973715;28;20576;-64
2021/12/03 07:19:03;;;;;;;16.95;7.47;;;;;;;2.24;74.62;97786.78;4974404;28;20058;-64
2021/12/03 07:21:30;;;;;;;15.80;8.05;;;;;;;2.22;74.60;97783.56;4974075;28;20125;-64
2021/12/03 07:23:57;;;;;;;12.50;7.03;;;;;;;2.23;74.59;97761.31;4973742;28;20055;-64
2021/12/03 07:26:24;;;;;;;16.65;8.25;;;;;;;2.26;74.50;97763.41;4974782;28;20047;-65
2021/12/03 07:28:52;;;;;;;17.02;8.25;;;;;;;2.26;74.49;97779.03;4973769;28;20050;-64
2021/12/03 07:31:20;;;;;;;15.52;6.97;;;;;;;2.22;74.35;97787.09;4974178;28;20050;-65
2021/12/03 07:33:47;;;;;;;15.45;7.18;;;;;;;2.23;74.15;97779.69;4973773;28;20059;-64
2021/12/03 07:36:15;;;;;;;15.00;7.38;;;;;;;2.23;74.58;97785.19;4974271;28;20046;-65
2021/12/03 07:38:41;;;;;;;15.40;7.10;;;;;;;2.21;74.78;97790.97;4973715;28;20059;-64
2021/12/03 07:41:08;;;;;;;14.88;7.57;;;;;;;2.24;74.36;97797.75;4973971;28;20042;-64
2021/12/03 07:43:35;;;;;;;15.00;7.80;;;;;;;2.28;74.35;97805.00;4973584;28;20049;-64
2021/12/03 07:46:03;;;;;;;13.32;7.72;;;;;;;2.26;74.14;97811.97;4973843;28;20046;-64
2021/12/03 07:48:30;;;;;;;14.43;7.15;;;;;;;2.25;74.19;97811.16;4973067;28;20051;-64
2021/12/03 07:50:58;;;;;;;17.73;7.65;;;;;;;2.23;73.98;97805.19;4973877;28;20070;-64
2021/12/03 07:53:25;;;;;;;14.35;7.80;;;;;;;2.26;74.20;97814.72;4973031;28;20138;-64
2021/12/03 07:55:56;;;;;;;13.13;7.28;;;;;;;2.28;74.01;97820.69;4974081;28;20051;-65
2021/12/03 07:58:22;;;;;;;17.02;7.72;;;;;;;2.26;74.02;97821.00;4973015;28;20427;-64
2021/12/03 08:00:50;;;;;;;18.23;8.25;;;;;;;2.26;74.10;97818.25;4973893;28;20462;-63
2021/12/03 08:03:19;;;;;;;14.68;7.43;;;;;;;2.28;74.01;97821.47;4973211;28;20090;-64
2021/12/03 08:05:47;;;;;;;19.60;8.10;;;;;;;2.30;73.74;97826.63;4973193;28;20088;-64
2021/12/03 08:08:21;;;;;;;12.15;7.10;;;;;;;2.33;73.85;97826.00;4973339;28;20054;-64
2021/12/03 08:10:50;;;;;;;17.95;7.47;;;;;;;2.34;73.93;97825.69;4973193;28;20050;-64
2021/12/03 08:13:17;;;;;;;17.33;7.97;;;;;;;2.28;74.01;97826.19;4973042;28;20054;-64
2021/12/03 08:15:44;;;;;;;15.45;7.78;;;;;;;2.28;73.87;97828.91;4972397;28;20423;-64
2021/12/03 08:18:11;;;;;;;16.63;7.30;;;;;;;2.35;73.59;97826.50;4971991;28;20047;-64
2021/12/03 08:20:38;;;;;;;17.05;7.80;;;;;;;2.48;73.01;97817.28;4972849;28;20054;-65
2021/12/03 08:23:06;;;;;;;15.93;7.32;;;;;;;2.59;73.05;97830.41;4973103;28;20051;-64
2021/12/03 08:25:33;;;;;;;15.85;7.30;;;;;;;2.77;72.54;97825.69;4972898;28;20051;-64
2021/12/03 08:28:00;;;;;;;13.68;6.03;;;;;;;2.88;72.21;97818.75;4972897;28;20430;-64
2021/12/03 08:30:29;;;;;;;14.35;7.47;;;;;;;2.89;72.53;97826.66;4972657;28;20050;-64
2021/12/03 08:32:58;;;;;;;12.10;6.95;;;;;;;2.93;72.27;97826.84;4972329;28;20431;-63
2021/12/03 08:35:25;;;;;;;17.98;8.05;;;;;;;3.01;72.00;97831.50;4972264;28;20050;-64
2021/12/03 08:37:53;;;;;;;13.68;6.78;;;;;;;3.12;71.51;97838.25;4973282;28;20062;-63
2021/12/03 08:40:21;;;;;;;12.40;6.57;;;;;;;3.20;71.07;97835.50;4972132;28;20133;-64
2021/12/03 08:42:49;;;;;;;12.50;6.38;;;;;;;3.31;71.22;97828.53;4972656;28;20149;-64
2021/12/03 08:45:18;;;;;;;11.38;6.75;;;;;;;3.44;70.88;97832.22;4987240;28;20078;-64
2021/12/03 08:47:49;;;;;;;13.93;7.07;;;;;;;3.49;70.75;97834.75;4972835;28;20130;-64
2021/12/03 08:50:26;;;;;;;16.83;7.05;;;;;;;3.43;70.51;97827.84;4972005;28;20133;-64
2021/12/03 08:55:20;;;;;;;36.22;13.52;;;;;;;3.22;70.68;97846.16;4971895;28;20046;-63
2021/12/03 08:57:47;;;;;;;13.65;6.93;;;;;;;3.13;70.61;97831.63;4972568;28;20057;-63
2021/12/03 09:00:19;;;;;;;20.55;6.53;;;;;;;3.23;70.49;97845.81;4971253;28;20042;-64
2021/12/03 09:02:46;;;;;;;15.95;5.30;;;;;;;3.25;70.06;97843.56;4969120;28;20091;-64
2021/12/03 09:05:13;;;;;;;12.23;6.60;;;;;;;3.30;69.51;97831.59;4971950;28;20049;-63
2021/12/03 09:07:41;;;;;;;14.38;6.57;;;;;;;3.32;69.49;97834.84;4972817;28;20061;-63
2021/12/03 09:10:15;;;;;;;9.88;5.97;;;;;;;3.32;69.65;97840.34;4972959;28;20502;-63
2021/12/03 09:12:42;;;;;;;10.45;5.60;;;;;;;3.31;69.73;97844.19;4973069;28;20089;-63
2021/12/03 09:15:15;;;;;;;13.20;6.15;;;;;;;3.21;69.17;97850.03;4972546;28;20047;-63
2021/12/03 09:22:59;;;;;;;13.50;5.75;;;;;;;2.95;70.08;97852.00;4972595;28;20078;-63
2021/12/03 09:25:35;;;;;;;10.80;5.63;;;;;;;2.90;70.04;97854.94;4972187;28;20134;-63
2021/12/03 09:28:05;;;;;;;9.65;5.85;;;;;;;2.88;69.93;97863.50;4971302;28;20059;-64
2021/12/03 09:30:40;;;;;;;;;;;;;;;2.87;69.76;97850.09;4972544;28;20050;-63
2021/12/03 09:33:12;;;;;;;12.02;5.93;;;;;;;2.92;69.41;97842.50;4972274;28;20020;-63
2021/12/03 09:35:44;;;;;;;10.40;6.10;;;;;;;2.94;69.43;97839.41;4971948;28;20097;-63
2021/12/03 09:38:12;;;;;;;13.27;6.13;;;;;;;2.90;69.14;97838.47;4972379;28;20141;-64
2021/12/03 09:40:40;;;;;;;13.82;6.05;;;;;;;2.83;69.51;97843.63;4972933;28;20047;-63
2021/12/03 09:43:07;;;;;;;11.05;6.25;;;;;;;2.79;69.63;97842.66;4970941;28;20410;-59
2021/12/03 09:45:36;;;;;;;15.02;6.40;;;;;;;2.82;69.46;97842.00;4973292;28;20055;-58
2021/12/03 09:48:44;;;;;;;12.27;6.57;;;;;;;2.84;69.77;97845.25;4988848;28;20507;-57
2021/12/03 09:50:57;;;;;;;20.73;6.07;;;;;;;2.79;69.43;97848.16;4974169;28;20062;-60
2021/12/03 09:54:21;;;;;;;9.95;5.78;;;;;;;2.79;69.47;97850.91;4975747;28;20042;-57
2021/12/03 09:56:12;;;;;;;12.43;6.05;;;;;;;2.76;69.69;97863.34;4968167;28;20421;-59
2021/12/03 10:01:57;;;;;;;10.70;6.57;;;;;;;2.75;69.65;97869.94;4975046;28;20130;-59
2021/12/03 10:12:52;;;;;;;10.88;5.70;;;;;;;2.79;69.62;97853.66;4971434;28;20553;-58
2021/12/03 10:18:08;;;;;;;10.93;6.30;;;;;;;2.67;70.13;97850.75;4974139;28;20050;-57
2021/12/03 10:21:05;;;;;;;13.60;5.95;;;;;;;2.68;70.15;97850.41;4974302;28;20050;-58
2021/12/03 10:29:28;;;;;;;16.40;7.30;;;;;;;2.65;70.06;97855.72;4972858;28;20054;-59
2021/12/03 10:38:06;;;;;;;13.02;5.80;;;;;;;2.56;70.20;97842.00;4973436;28;20166;-56
2021/12/03 10:40:53;;;;;;;9.00;5.47;;;;;;;2.54;70.31;97846.19;4972573;28;20055;-58
2021/12/03 10:51:44;;;;;;;10.60;5.80;;;;;;;2.48;70.63;97851.03;4970815;28;20046;-58
2021/12/03 10:59:44;;;;;;;20.17;6.60;;;;;;;2.53;70.31;97861.06;4973864;28;20058;-61
2021/12/03 11:30:09;;;;;;;12.32;5.68;;;;;;;2.47;70.57;97857.66;4970290;28;20054;-60
2021/12/03 11:50:32;;;;;;;10.98;5.50;;;;;;;2.43;70.66;97861.38;4972220;28;20051;-60
2021/12/03 11:58:48;;;;;;;10.25;5.53;;;;;;;2.30;70.92;97867.78;4972319;28;20051;-60
2021/12/03 12:28:21;;;;;;;16.20;6.25;;;;;;;2.18;71.23;97826.47;4971316;28;20058;-64
2021/12/03 13:12:19;;;;;;;11.05;6.38;;;;;;;2.06;71.33;97801.59;4971146;28;20059;-62
2021/12/03 14:07:15;;;;;;;11.52;6.60;;;;;;;1.96;71.96;97790.94;4975692;28;20572;-62
2021/12/03 14:15:44;;;;;;;17.35;7.32;;;;;;;1.92;72.75;97795.47;4975410;28;20145;-62
2021/12/03 14:40:15;;;;;;;16.85;8.00;;;;;;;1.43;74.47;97788.38;4975127;28;20529;-58
2021/12/03 14:42:58;;;;;;;16.17;6.93;;;;;;;1.37;75.13;97784.97;4975058;28;20145;-60
2021/12/03 14:55:56;;;;;;;12.30;7.20;;;;;;;1.11;76.13;97770.34;4975080;28;20050;-60
2021/12/03 14:58:38;;;;;;;16.75;6.30;;;;;;;1.13;76.92;97762.59;4974308;28;20538;-60
2021/12/03 15:01:21;;;;;;;18.60;7.72;;;;;;;1.13;76.48;97750.88;4975330;28;20061;-60
2021/12/03 15:04:04;;;;;;;12.43;7.22;;;;;;;1.06;76.91;97756.78;4974881;28;20090;-55
2021/12/03 15:06:49;;;;;;;13.35;6.85;;;;;;;1.06;76.79;97756.78;4988950;28;20169;-59
2021/12/03 15:09:29;;;;;;;13.40;7.05;;;;;;;0.92;77.29;97742.38;4975186;28;20047;-59
2021/12/03 15:12:17;;;;;;;19.67;7.57;;;;;;;0.87;77.47;97737.06;4974400;28;20141;-58
2021/12/03 15:20:30;;;;;;;17.10;8.35;;;;;;;1.01;77.52;97745.97;4974482;28;20427;-58
2021/12/03 15:28:05;;;;;;;17.60;8.80;;;;;;;1.10;77.58;97735.84;4974118;28;20507;-59
2021/12/03 15:54:50;;;;;;;15.65;7.85;;;;;;;1.17;78.06;97722.53;4972131;28;20074;-59
2021/12/03 15:57:33;;;;;;;15.77;8.10;;;;;;;1.17;77.94;97716.25;4974016;28;20050;-59
2021/12/03 16:06:15;;;;;;;15.77;8.02;;;;;;;1.17;78.02;97713.50;4973278;28;20061;-59
2021/12/03 16:08:41;;;;;;;14.35;7.82;;;;;;;1.13;78.22;97705.09;4973155;28;20058;-59
2021/12/03 16:21:58;;;;;;;17.90;9.18;;;;;;;1.24;78.86;97695.50;4972990;28;20068;-59
2021/12/03 16:52:09;;;;;;;14.48;8.15;;;;;;;1.51;78.27;97648.66;4970719;28;20149;-60
2021/12/03 16:54:54;;;;;;;14.30;7.78;;;;;;;1.50;78.37;97654.47;4971098;28;20058;-58
2021/12/03 16:57:28;;;;;;;13.88;7.60;;;;;;;1.57;78.07;97668.53;4971851;28;20128;-60
2021/12/03 16:59:56;;;;;;;14.07;8.00;;;;;;;1.58;78.02;97648.19;4973017;28;20050;-59
2021/12/03 17:02:34;;;;;;;12.23;7.07;;;;;;;1.61;78.06;97636.59;4971608;28;20043;-59
2021/12/03 17:05:16;;;;;;;15.35;8.20;;;;;;;1.61;78.17;97648.38;4972902;28;20499;-60
2021/12/03 17:08:26;;;;;;;13.52;6.75;;;;;;;1.65;77.90;97643.03;4972295;28;20406;-59
2021/12/03 17:51:44;;;;;;;14.13;7.85;;;;;;;1.75;77.08;97632.56;5010678;28;20084;-63
2021/12/03 17:57:10;;;;;;;15.38;6.90;;;;;;;1.65;77.64;97621.94;5009587;28;20058;-63
2021/12/03 17:59:49;;;;;;;12.05;7.05;;;;;;;1.66;77.61;97609.84;5015461;28;20075;-62
2021/12/03 18:02:35;;;;;;;13.20;7.20;;;;;;;1.68;77.74;97618.56;5008905;28;20088;-63
2021/12/03 18:05:27;;;;;;;13.70;7.05;;;;;;;1.69;77.72;97617.41;5010416;28;20041;-58
2021/12/03 18:08:34;;;;;;;23.83;8.00;;;;;;;1.71;77.48;97625.31;5014683;28;20133;-62